createdAt,value
2018-01-22T00:01:30.621Z,45.83
2018-01-22T00:03:59.103Z,43.13
2018-01-22T00:06:27.989Z,38.97
2018-01-22T00:08:56.457Z,42.13
2018-01-22T00:11:25.009Z,37.20
2018-01-22T00:13:53.743Z,44.22
2018-01-22T00:16:22.375Z,34.33
2018-01-22T00:18:50.935Z,41.08
2018-01-22T00:21:19.593Z,34.15
2018-01-22T00:23:48.112Z,38.28
2018-01-22T00:26:16.645Z,41.05
2018-01-22T00:28:45.212Z,38.35
2018-01-22T00:31:13.755Z,34.22
2018-01-22T00:33:42.673Z,35.05
2018-01-22T00:36:12.074Z,35.95
2018-01-22T00:38:40.627Z,41.28
2018-01-22T00:41:09.181Z,38.67
2018-01-22T00:43:38.692Z,35.90
2018-01-22T00:46:07.166Z,40.30
2018-01-22T00:48:35.631Z,45.50
2018-01-22T00:51:04.549Z,32.65
2018-01-22T00:53:33.782Z,39.50
2018-01-22T00:56:02.296Z,38.40
2018-01-22T00:58:30.767Z,38.70
2018-01-22T01:00:59.261Z,35.00
2018-01-22T01:03:27.688Z,38.28
2018-01-22T01:05:56.208Z,31.30
2018-01-22T01:08:24.665Z,45.90
2018-01-22T01:10:53.190Z,43.22
2018-01-22T01:13:21.719Z,37.13
2018-01-22T01:15:50.169Z,46.47
2018-01-22T01:18:18.608Z,38.83
2018-01-22T01:20:47.619Z,41.20
2018-01-22T01:23:16.115Z,38.92
2018-01-22T01:25:44.580Z,31.50
2018-01-22T01:28:13.305Z,30.05
2018-01-22T01:30:41.951Z,33.45
2018-01-22T01:33:10.462Z,29.67
2018-01-22T01:35:39.224Z,30.12
2018-01-22T01:38:07.910Z,33.42
2018-01-22T01:40:36.386Z,32.97
2018-01-22T01:43:05.113Z,31.60
2018-01-22T01:45:33.652Z,25.23
2018-01-22T01:48:02.100Z,25.92
2018-01-22T01:50:30.677Z,21.70
2018-01-22T01:52:59.155Z,29.08
2018-01-22T01:55:27.579Z,25.17
2018-01-22T01:57:56.359Z,21.42
2018-01-22T02:00:24.805Z,31.98
2018-01-22T02:02:53.320Z,32.30
2018-01-22T02:05:21.827Z,32.00
2018-01-22T02:07:50.285Z,33.88
2018-01-22T02:10:18.772Z,32.53
2018-01-22T02:12:47.349Z,40.92
2018-01-22T02:15:15.944Z,20.77
2018-01-22T02:17:44.510Z,32.42
2018-01-22T02:20:13.305Z,35.45
2018-01-22T02:22:41.802Z,31.02
2018-01-22T02:25:10.382Z,36.72
2018-01-22T02:27:39.261Z,36.72
2018-01-22T02:30:07.961Z,35.08
2018-01-22T02:32:36.519Z,29.85
2018-01-22T02:35:05.026Z,37.83
2018-01-22T02:37:33.480Z,33.15
2018-01-22T02:40:01.938Z,36.22
2018-01-22T02:42:30.462Z,41.67
2018-01-22T02:44:58.917Z,30.85
2018-01-22T02:47:27.348Z,45.03
2018-01-22T02:49:56.181Z,41.85
2018-01-22T02:52:24.616Z,35.17
2018-01-22T02:54:53.050Z,34.40
2018-01-22T02:57:21.521Z,35.65
2018-01-22T02:59:49.998Z,40.53
2018-01-22T03:02:18.584Z,46.30
2018-01-22T03:04:47.419Z,46.80
2018-01-22T03:07:15.863Z,33.05
2018-01-22T03:09:44.329Z,44.60
2018-01-22T03:12:12.946Z,41.78
2018-01-22T03:14:41.507Z,49.67
2018-01-22T03:17:10.087Z,47.03
2018-01-22T03:19:38.876Z,34.22
2018-01-22T03:22:07.560Z,43.10
2018-01-22T03:24:36.021Z,39.17
2018-01-22T03:27:04.528Z,39.88
2018-01-22T03:29:32.981Z,42.47
2018-01-22T03:32:01.431Z,40.17
2018-01-22T03:34:29.908Z,38.67
2018-01-22T03:36:58.333Z,47.10
2018-01-22T03:39:26.761Z,40.83
2018-01-22T03:41:55.303Z,47.08
2018-01-22T03:44:23.776Z,39.08
2018-01-22T03:46:52.256Z,45.92
2018-01-22T03:49:20.736Z,42.92
2018-01-22T03:51:49.217Z,37.42
2018-01-22T03:54:17.721Z,36.80
2018-01-22T03:56:46.286Z,39.20
2018-01-22T03:59:14.863Z,34.65
2018-01-22T04:01:43.355Z,38.88
2018-01-22T04:04:11.926Z,45.17
2018-01-22T04:06:40.468Z,42.08
2018-01-22T04:09:09.145Z,45.20
2018-01-22T04:11:37.680Z,34.58
2018-01-22T04:14:06.197Z,41.70
2018-01-22T04:16:34.845Z,35.75
2018-01-22T04:19:03.286Z,44.90
2018-01-22T04:21:31.799Z,48.00
2018-01-22T04:24:00.244Z,42.97
2018-01-22T04:26:28.725Z,39.20
2018-01-22T04:28:57.152Z,39.85
2018-01-22T04:31:25.586Z,43.85
2018-01-22T04:33:54.064Z,38.97
2018-01-22T04:36:22.527Z,40.22
2018-01-22T04:38:50.983Z,45.17
2018-01-22T04:41:19.634Z,43.80
2018-01-22T04:43:48.265Z,50.88
2018-01-22T04:46:16.805Z,37.47
2018-01-22T04:48:45.479Z,36.63
2018-01-22T04:51:13.945Z,40.35
2018-01-22T04:53:42.532Z,44.80
2018-01-22T04:56:11.153Z,47.90
2018-01-22T04:58:39.689Z,49.45
2018-01-22T05:01:08.573Z,42.33
2018-01-22T05:03:37.338Z,39.75
2018-01-22T05:06:05.895Z,49.58
2018-01-22T05:08:34.354Z,40.75
2018-01-22T05:11:03.073Z,48.55
2018-01-22T05:13:32.435Z,36.40
2018-01-22T05:16:00.896Z,42.88
2018-01-22T05:18:29.501Z,30.42
2018-01-22T05:20:58.029Z,33.67
2018-01-22T05:23:26.465Z,39.20
2018-01-22T05:25:54.928Z,38.75
2018-01-22T05:28:23.389Z,40.70
2018-01-22T05:30:52.042Z,39.25
2018-01-22T05:33:20.520Z,43.83
2018-01-22T05:35:49.008Z,33.22
2018-01-22T05:38:17.453Z,37.22
2018-01-22T05:40:46.408Z,33.58
2018-01-22T05:43:14.907Z,50.10
2018-01-22T05:45:43.419Z,49.63
2018-01-22T05:48:12.107Z,39.83
2018-01-22T05:50:40.618Z,35.20
2018-01-22T05:53:09.178Z,58.95
2018-01-22T05:55:37.924Z,34.70
2018-01-22T05:58:06.464Z,32.05
2018-01-22T06:00:34.954Z,44.30
2018-01-22T06:03:03.408Z,37.13
2018-01-22T06:05:31.941Z,36.88
2018-01-22T06:08:00.407Z,40.50
2018-01-22T06:10:29.645Z,39.45
2018-01-22T06:12:58.063Z,37.10
2018-01-22T06:15:26.509Z,37.72
2018-01-22T06:17:54.985Z,37.30
2018-01-22T06:20:23.436Z,39.75
2018-01-22T06:22:51.879Z,52.70
2018-01-22T06:25:20.669Z,42.22
2018-01-22T06:27:49.167Z,38.75
2018-01-22T06:30:17.690Z,45.90
2018-01-22T06:32:46.376Z,44.92
2018-01-22T06:35:14.926Z,35.13
2018-01-22T06:37:43.436Z,44.47
2018-01-22T06:40:11.968Z,46.00
2018-01-22T06:42:40.447Z,38.70
2018-01-22T06:45:10.072Z,40.92
2018-01-22T06:47:38.588Z,36.75
2018-01-22T06:50:07.102Z,40.85
2018-01-22T06:52:35.532Z,48.63
2018-01-22T06:55:04.003Z,36.85
2018-01-22T06:57:32.488Z,34.53
2018-01-22T07:00:00.966Z,44.03
2018-01-22T07:02:29.798Z,38.00
2018-01-22T07:04:58.234Z,39.47
2018-01-22T07:07:26.694Z,31.92
2018-01-22T07:09:55.178Z,37.72
2018-01-22T07:12:23.735Z,34.13
2018-01-22T07:14:52.185Z,38.75
2018-01-22T07:17:20.636Z,40.63
2018-01-22T07:19:49.118Z,33.00
2018-01-22T07:22:17.617Z,40.63
2018-01-22T07:24:46.201Z,32.38
2018-01-22T07:27:14.637Z,41.40
2018-01-22T07:29:43.322Z,33.70
2018-01-22T07:32:12.126Z,40.90
2018-01-22T07:34:40.619Z,37.90
2018-01-22T07:37:09.869Z,33.47
2018-01-22T07:39:38.370Z,36.28
2018-01-22T07:42:06.786Z,34.33
2018-01-22T07:44:35.243Z,45.00
2018-01-22T07:47:03.722Z,44.90
2018-01-22T07:49:32.125Z,37.15
2018-01-22T07:52:00.545Z,42.47
2018-01-22T07:54:29.010Z,44.13
2018-01-22T07:56:57.448Z,33.63
2018-01-22T07:59:25.857Z,44.05
2018-01-22T08:01:54.297Z,31.27
2018-01-22T08:04:22.724Z,45.05
2018-01-22T08:06:51.266Z,46.22
2018-01-22T08:09:19.773Z,46.35
2018-01-22T08:11:48.257Z,40.88
2018-01-22T08:14:16.906Z,44.25
2018-01-22T08:16:45.645Z,53.25
2018-01-22T08:19:14.131Z,48.30
2018-01-22T08:21:42.635Z,40.50
2018-01-22T08:24:11.523Z,37.63
2018-01-22T08:26:40.025Z,42.15
2018-01-22T08:29:08.485Z,48.35
2018-01-22T08:31:36.966Z,36.20
2018-01-22T08:34:05.390Z,49.35
2018-01-22T08:36:33.821Z,47.17
2018-01-22T08:39:02.426Z,48.75
2018-01-22T08:41:30.844Z,44.72
2018-01-22T08:43:59.256Z,39.67
2018-01-22T08:46:27.913Z,44.95
2018-01-22T08:48:56.435Z,41.10
2018-01-22T08:51:24.876Z,42.67
2018-01-22T08:53:55.331Z,39.85
2018-01-22T08:56:23.853Z,40.28
2018-01-22T08:58:52.272Z,50.88
2018-01-22T09:01:20.791Z,41.05
2018-01-22T09:03:49.409Z,44.55
2018-01-22T09:06:17.907Z,46.37
2018-01-22T09:08:48.144Z,46.53
2018-01-22T09:11:16.628Z,37.95
2018-01-22T09:13:45.273Z,44.50
2018-01-22T09:16:14.042Z,48.83
2018-01-22T09:18:42.731Z,44.67
2018-01-22T09:21:11.380Z,42.08
2018-01-22T09:23:40.119Z,56.13
2018-01-22T09:26:08.600Z,49.40
2018-01-22T09:28:37.386Z,52.78
2018-01-22T09:31:06.097Z,52.38
2018-01-22T09:33:34.556Z,40.58
2018-01-22T09:36:02.995Z,43.00
2018-01-22T09:38:32.677Z,42.42
2018-01-22T09:41:01.258Z,48.40
2018-01-22T09:43:29.833Z,49.67
2018-01-22T09:45:58.356Z,51.53
2018-01-22T09:48:26.805Z,41.95
2018-01-22T09:50:55.248Z,44.85
2018-01-22T09:53:23.737Z,58.20
2018-01-22T09:55:52.247Z,50.72
2018-01-22T09:58:20.869Z,43.83
2018-01-22T10:00:49.396Z,47.17
2018-01-22T10:03:18.053Z,34.45
2018-01-22T10:05:46.561Z,52.95
2018-01-22T10:08:15.094Z,44.60
2018-01-22T10:10:43.677Z,48.42
2018-01-22T10:13:13.033Z,45.38
2018-01-22T10:15:41.562Z,48.78
2018-01-22T10:18:10.042Z,46.40
2018-01-22T10:20:38.522Z,46.95
2018-01-22T10:23:06.998Z,43.75
2018-01-22T10:25:35.532Z,43.13
2018-01-22T10:28:04.021Z,44.47
2018-01-22T10:30:33.171Z,42.40
2018-01-22T10:33:01.598Z,44.58
2018-01-22T10:35:30.074Z,41.72
2018-01-22T10:37:58.587Z,38.70
2018-01-22T10:40:27.024Z,33.15
2018-01-22T10:42:55.455Z,34.28
2018-01-22T10:45:25.092Z,48.40
2018-01-22T10:47:53.524Z,43.33
2018-01-22T10:50:22.122Z,44.42
2018-01-22T10:52:50.895Z,49.83
2018-01-22T10:55:19.489Z,46.45
2018-01-22T10:57:48.007Z,38.65
2018-01-22T11:00:16.488Z,44.53
2018-01-22T11:02:45.097Z,47.83
2018-01-22T11:05:17.509Z,44.60
2018-01-22T11:07:46.265Z,39.15
2018-01-22T11:10:14.754Z,43.90
2018-01-22T11:12:43.212Z,42.67
2018-01-22T11:15:12.248Z,45.92
2018-01-22T11:17:40.796Z,47.00
2018-01-22T11:20:10.064Z,42.03
2018-01-22T11:22:38.758Z,51.28
2018-01-22T11:25:08.569Z,31.75
2018-01-22T11:27:37.013Z,37.85
2018-01-22T11:30:05.492Z,42.05
2018-01-22T11:32:34.137Z,37.38
2018-01-22T11:35:02.577Z,38.38
2018-01-22T11:37:31.102Z,43.05
2018-01-22T11:39:59.534Z,38.75
2018-01-22T11:42:27.956Z,32.03
2018-01-22T11:44:56.556Z,39.83
2018-01-22T11:47:25.016Z,39.75
2018-01-22T11:49:53.588Z,36.47
2018-01-22T11:52:22.069Z,50.75
2018-01-22T11:54:50.505Z,38.38
2018-01-22T11:57:19.048Z,45.67
2018-01-22T11:59:47.831Z,41.00
2018-01-22T12:02:16.317Z,38.22
2018-01-22T12:04:44.799Z,38.47
2018-01-22T12:07:14.155Z,42.05
2018-01-22T12:09:42.616Z,40.35
2018-01-22T12:12:11.832Z,39.22
2018-01-22T12:14:40.570Z,44.97
2018-01-22T12:17:09.117Z,38.33
2018-01-22T12:19:37.560Z,39.25
2018-01-22T12:22:06.113Z,48.00
2018-01-22T12:24:34.551Z,43.08
2018-01-22T12:27:02.983Z,43.95
2018-01-22T12:29:31.704Z,41.88
2018-01-22T12:32:00.402Z,48.87
2018-01-22T12:34:28.826Z,45.55
2018-01-22T12:36:57.305Z,39.90
2018-01-22T12:39:25.762Z,44.92
2018-01-22T12:41:54.210Z,41.25
2018-01-22T12:44:22.955Z,58.15
2018-01-22T12:46:51.842Z,37.22
2018-01-22T12:49:20.320Z,48.38
2018-01-22T12:51:49.760Z,44.05
2018-01-22T12:54:18.271Z,40.65
2018-01-22T12:56:46.721Z,40.90
2018-01-22T12:59:15.713Z,36.33
2018-01-22T13:01:44.289Z,42.25
2018-01-22T13:04:12.853Z,43.85
2018-01-22T13:06:41.901Z,43.45
2018-01-22T13:09:10.420Z,45.35
2018-01-22T13:11:39.006Z,36.53
2018-01-22T13:14:07.510Z,50.60
2018-01-22T13:16:35.962Z,38.53
2018-01-22T13:19:05.017Z,43.67
2018-01-22T13:21:33.668Z,46.00
2018-01-22T13:24:02.066Z,49.72
2018-01-22T13:26:30.499Z,38.97
2018-01-22T13:28:58.981Z,50.63
2018-01-22T13:31:27.416Z,43.53
2018-01-22T13:33:55.844Z,44.35
2018-01-22T13:36:24.414Z,43.17
2018-01-22T13:38:52.907Z,40.72
2018-01-22T13:41:21.452Z,47.25
2018-01-22T13:43:49.957Z,43.65
2018-01-22T13:46:18.554Z,46.20
2018-01-22T13:48:47.135Z,53.22
2018-01-22T13:51:15.827Z,48.30
2018-01-22T13:53:44.396Z,39.42
2018-01-22T13:56:12.980Z,49.50
2018-01-22T13:58:41.886Z,42.83
2018-01-22T14:01:10.448Z,45.90
2018-01-22T14:03:39.252Z,42.75
2018-01-22T14:06:08.147Z,47.90
2018-01-22T14:08:36.568Z,41.75
2018-01-22T14:11:05.896Z,40.40
2018-01-22T14:13:34.662Z,48.58
2018-01-22T14:16:03.106Z,58.78
2018-01-22T14:18:31.527Z,45.33
2018-01-22T14:21:00.001Z,45.92
2018-01-22T14:23:28.432Z,45.92
2018-01-22T14:25:56.889Z,42.25
2018-01-22T14:28:25.524Z,47.15
2018-01-22T14:30:54.022Z,46.05
2018-01-22T14:33:22.463Z,54.22
2018-01-22T14:35:51.081Z,43.83
2018-01-22T14:38:19.770Z,50.35
2018-01-22T14:40:48.291Z,37.97
2018-01-22T14:43:17.089Z,44.53
2018-01-22T14:45:45.552Z,47.13
2018-01-22T14:48:14.061Z,44.22
2018-01-22T14:50:42.609Z,47.40
2018-01-22T14:53:12.427Z,42.75
2018-01-22T14:55:40.906Z,45.55
2018-01-22T14:58:09.485Z,49.05
2018-01-22T15:00:38.276Z,48.33
2018-01-22T15:03:06.749Z,47.42
2018-01-22T15:05:35.542Z,44.50
2018-01-22T15:08:03.965Z,44.53
2018-01-22T15:10:32.446Z,38.17
2018-01-22T15:13:00.975Z,37.60
2018-01-22T15:15:29.435Z,50.30
2018-01-22T15:17:57.848Z,40.97
2018-01-22T15:20:26.529Z,43.47
2018-01-22T15:22:55.037Z,39.75
2018-01-22T15:25:23.620Z,40.70
2018-01-22T15:27:52.217Z,41.58
2018-01-22T15:30:20.748Z,41.55
2018-01-22T15:32:49.231Z,37.20
2018-01-22T15:35:18.027Z,42.83
2018-01-22T15:37:46.508Z,38.05
2018-01-22T15:40:15.197Z,44.95
2018-01-22T15:42:43.885Z,38.47
2018-01-22T15:45:12.478Z,40.22
2018-01-22T15:47:41.189Z,42.83
2018-01-22T15:50:10.956Z,41.58
2018-01-22T15:52:39.917Z,42.35
2018-01-22T15:55:08.850Z,45.12
2018-01-22T15:57:37.640Z,36.53
2018-01-22T16:00:06.433Z,42.83
2018-01-22T16:02:35.061Z,37.22
2018-01-22T16:05:03.696Z,45.03
2018-01-22T16:07:32.225Z,41.58
2018-01-22T16:10:00.704Z,44.60
2018-01-22T16:12:29.221Z,40.95
2018-01-22T16:14:57.663Z,46.97
2018-01-22T16:17:26.144Z,42.92
2018-01-22T16:19:54.730Z,35.55
2018-01-22T16:22:23.239Z,41.70
2018-01-22T16:24:51.756Z,49.42
2018-01-22T16:27:20.512Z,38.60
2018-01-22T16:29:50.142Z,45.58
2018-01-22T16:32:18.837Z,36.35
2018-01-22T16:34:47.403Z,42.72
2018-01-22T16:37:16.732Z,45.58
2018-01-22T16:39:45.192Z,45.15
2018-01-22T16:42:14.278Z,41.03
2018-01-22T16:44:42.848Z,40.12
2018-01-22T16:47:16.869Z,41.95
2018-01-22T16:49:45.446Z,53.75
2018-01-22T16:52:14.225Z,44.22
2018-01-22T16:54:43.109Z,45.65
2018-01-22T16:57:11.772Z,46.13
2018-01-22T16:59:40.483Z,50.03
2018-01-22T17:02:09.175Z,40.45
2018-01-22T17:04:37.682Z,47.08
2018-01-22T17:07:06.147Z,43.45
2018-01-22T17:09:34.917Z,38.95
2018-01-22T17:12:03.401Z,43.05
2018-01-22T17:14:31.965Z,48.20
2018-01-22T17:17:01.499Z,43.35
2018-01-22T17:19:30.001Z,52.30
2018-01-22T17:21:58.880Z,39.35
2018-01-22T17:24:27.880Z,58.05
2018-01-22T17:26:56.482Z,46.00
2018-01-22T17:29:24.960Z,41.03
2018-01-22T17:31:53.596Z,50.12
2018-01-22T17:34:22.375Z,53.22
2018-01-22T17:36:50.853Z,43.00
2018-01-22T17:39:19.330Z,42.78
2018-01-22T17:41:48.227Z,41.47
2018-01-22T17:44:16.826Z,39.40
2018-01-22T17:46:45.602Z,41.83
2018-01-22T17:49:14.807Z,42.38
2018-01-22T17:51:43.469Z,42.70
2018-01-22T17:54:12.473Z,45.83
2018-01-22T17:56:41.924Z,38.72
2018-01-22T17:59:10.570Z,38.97
2018-01-22T18:01:39.161Z,39.97
2018-01-22T18:04:08.079Z,47.38
2018-01-22T18:06:36.614Z,46.35
2018-01-22T18:09:05.644Z,39.88
2018-01-22T18:11:33.997Z,48.90
2018-01-22T18:14:05.327Z,39.47
2018-01-22T18:16:33.924Z,43.85
2018-01-22T18:19:04.250Z,45.05
2018-01-22T18:21:32.924Z,41.95
2018-01-22T18:24:01.409Z,41.20
2018-01-22T18:26:31.482Z,45.83
2018-01-22T18:29:00.854Z,40.45
2018-01-22T18:31:29.630Z,50.88
2018-01-22T18:33:58.122Z,46.28
2018-01-22T18:36:26.583Z,42.25
2018-01-22T18:38:55.497Z,48.45
2018-01-22T18:41:24.113Z,39.53
2018-01-22T18:43:52.702Z,48.65
2018-01-22T18:46:23.021Z,51.70
2018-01-22T18:48:52.859Z,42.10
2018-01-22T18:51:21.569Z,51.55
2018-01-22T18:53:50.226Z,54.78
2018-01-22T18:56:19.065Z,51.92
2018-01-22T18:58:47.778Z,44.65
2018-01-22T19:01:16.422Z,48.70
2018-01-22T19:03:44.972Z,59.05
2018-01-22T19:06:13.607Z,45.97
2018-01-22T19:08:42.241Z,61.97
2018-01-22T19:11:10.955Z,55.90
2018-01-22T19:13:39.483Z,56.72
2018-01-22T19:16:08.134Z,55.15
2018-01-22T19:18:37.068Z,52.38
2018-01-22T19:21:05.552Z,58.70
2018-01-22T19:23:34.041Z,52.78
2018-01-22T19:26:02.656Z,58.85
2018-01-22T19:28:32.236Z,62.67
2018-01-22T19:31:03.381Z,64.80
2018-01-22T19:33:35.471Z,68.22
2018-01-22T19:36:06.723Z,68.57
2018-01-22T19:38:37.474Z,68.80
2018-01-22T19:41:07.241Z,70.00
2018-01-22T19:43:39.613Z,56.47
2018-01-22T19:46:11.470Z,56.58
2018-01-22T19:48:40.507Z,65.28
2018-01-22T19:51:09.375Z,66.75
2018-01-22T19:53:38.178Z,72.07
2018-01-22T19:56:06.913Z,68.32
2018-01-22T19:58:39.017Z,62.55
2018-01-22T20:01:14.055Z,75.37
2018-01-22T20:03:43.492Z,62.53
2018-01-22T20:06:12.716Z,69.18
2018-01-22T20:08:46.096Z,67.93
2018-01-22T20:11:15.394Z,65.43
2018-01-22T20:13:47.101Z,77.95
2018-01-22T20:16:16.585Z,75.37
2018-01-22T20:18:45.527Z,80.68
2018-01-22T20:21:14.373Z,68.47
2018-01-22T20:23:46.806Z,68.28
2018-01-22T20:26:16.525Z,64.53
2018-01-22T20:28:45.350Z,75.97
2018-01-22T20:31:14.001Z,64.05
2018-01-22T20:33:45.765Z,65.95
2018-01-22T20:36:17.522Z,82.72
2018-01-22T20:38:46.116Z,66.65
2018-01-22T20:41:14.934Z,66.28
2018-01-22T20:43:43.951Z,62.38
2018-01-22T20:46:12.500Z,75.55
2018-01-22T20:48:41.154Z,75.45
2018-01-22T20:51:10.559Z,76.57
2018-01-22T20:53:40.418Z,75.57
2018-01-22T20:56:09.184Z,69.80
2018-01-22T20:58:37.673Z,107.68
2018-01-22T21:01:06.145Z,83.18
2018-01-22T21:03:36.079Z,73.10
2018-01-22T21:06:04.874Z,79.78
2018-01-22T21:08:33.583Z,88.97
2018-01-22T21:11:02.224Z,76.28
2018-01-22T21:13:30.854Z,78.90
2018-01-22T21:15:59.464Z,69.30
2018-01-22T21:18:28.437Z,82.70
2018-01-22T21:20:57.955Z,78.25
2018-01-22T21:23:26.954Z,87.00
2018-01-22T21:25:55.744Z,78.87
2018-01-22T21:28:24.440Z,67.03
2018-01-22T21:30:53.671Z,73.78
2018-01-22T21:33:22.653Z,81.05
2018-01-22T21:35:51.292Z,90.53
2018-01-22T21:38:20.016Z,77.18
2018-01-22T21:40:48.753Z,72.03
2018-01-22T21:43:17.286Z,74.85
2018-01-22T21:45:45.814Z,73.12
2018-01-22T21:48:14.609Z,87.30
2018-01-22T21:50:45.195Z,92.28
2018-01-22T21:53:14.431Z,74.03
2018-01-22T21:55:43.133Z,80.93
2018-01-22T21:58:12.606Z,64.12
2018-01-22T22:00:46.512Z,76.93
2018-01-22T22:03:15.113Z,70.80
2018-01-22T22:05:44.132Z,76.85
2018-01-22T22:08:13.914Z,85.15
2018-01-22T22:10:42.506Z,88.55
2018-01-22T22:13:11.176Z,94.50
2018-01-22T22:15:40.299Z,98.12
2018-01-22T22:18:08.869Z,80.68
2018-01-22T22:20:37.338Z,82.53
2018-01-22T22:23:11.787Z,74.37
2018-01-22T22:25:42.233Z,80.40
2018-01-22T22:28:10.883Z,66.72
2018-01-22T22:30:39.465Z,78.87
2018-01-22T22:33:07.915Z,77.95
2018-01-22T22:35:36.445Z,69.53
2018-01-22T22:38:04.860Z,66.37
2018-01-22T22:40:34.496Z,71.00
2018-01-22T22:43:03.700Z,66.60
2018-01-22T22:45:32.172Z,74.87
2018-01-22T22:48:00.660Z,62.25
2018-01-22T22:50:29.140Z,59.88
2018-01-22T22:52:57.738Z,68.03
2018-01-22T22:55:26.248Z,72.85
2018-01-22T22:57:54.737Z,79.70
2018-01-22T23:00:23.273Z,82.65
2018-01-22T23:02:51.829Z,73.97
2018-01-22T23:05:20.323Z,73.37
2018-01-22T23:07:48.816Z,68.20
2018-01-22T23:10:17.400Z,74.93
2018-01-22T23:12:46.377Z,72.10
2018-01-22T23:15:14.934Z,64.12
2018-01-22T23:17:43.940Z,65.53
2018-01-22T23:20:12.569Z,59.47
2018-01-22T23:22:41.083Z,58.42
2018-01-22T23:25:10.549Z,54.75
2018-01-22T23:27:39.375Z,47.22
2018-01-22T23:30:07.915Z,37.25
2018-01-22T23:32:36.397Z,31.98
2018-01-22T23:35:04.963Z,32.45
2018-01-22T23:37:33.430Z,26.77
2018-01-22T23:40:01.880Z,28.58
2018-01-22T23:42:30.766Z,33.28
2018-01-22T23:44:59.281Z,30.15
2018-01-22T23:47:27.759Z,31.90
2018-01-22T23:49:56.263Z,31.60
2018-01-22T23:52:24.685Z,27.30
2018-01-22T23:54:53.145Z,30.42
2018-01-22T23:57:21.706Z,29.85
2018-01-22T23:59:50.229Z,33.95
